Impacts METAR Board INFO
IDs:

KMEM - Memphis Intl, TN, US

Updated at: 1422 UTC 22 Feb 2018
Potential Impact None Slight Moderate High
Time22/02Z 22/03Z 22/04Z 22/05Z 22/06Z 22/07Z 22/08Z 22/09Z 22/10Z 22/11Z 22/12Z 22/13Z 22/14Z
VIS 8 5 5 6 3 3 8 5 1.5 1 3
CIG 7 6 42 6 46 75 9 4 3 3 5
CoverOVCOVCOVCOVCOVCOVCOVCOVCOVCOVCOVC
FltCatIFRIFRMVFRIFRMVFRMVFRIFRLIFRLIFRLIFRIFR
WXRA+RA BR+RA BR-RA BRRA BR-RA BR--BR-DZ BR-DZ BRBR
WDir40303303107011030031033035010
WSpd 8 10 7 10 5 12 15 10 5 7 8
WGst -- -- -- -- -- -- -- -- -- -- --
Raw hourly METARs


KMEM 220354Z 04008KT 8SM RA BKN007 BKN010 OVC050 09/09 A3028 RMK AO2 LTG DSNT S SLP253 P0011 T00940089
KMEM 220454Z 03010KT 5SM +RA BR BKN006 OVC028 09/08 A3026 RMK AO2 SLP246 P0029 T00890083
KMEM 220554Z 33007KT 5SM +RA BR FEW006 BKN042 OVC085 09/08 A3025 RMK AO2 LTG DSNT E-S SLP243 P0036 60117 T00890083 10100 20078 402220072 58006
KMEM 220654Z 31010KT 6SM -RA BR BKN006 OVC015 06/05 A3029 RMK AO2 SLP256 P0015 T00560050
KMEM 220805Z 07005KT 3SM RA BR SCT005 BKN046 OVC060 06/06 A3025 RMK AO2 P0002 T00610056
KMEM 220854Z 11012KT 3SM -RA BR FEW005 SCT033 OVC075 07/06 A3018 RMK AO2 PRESFR SLP220 P0013 60040 T00670061 58022
KMEM 220954Z 30015KT 8SM BKN009 OVC110 08/07 A3023 RMK AO2 RAE45 SLP236 P0001 T00830072
KMEM 221054Z 31010KT 5SM BR OVC004 06/06 A3026 RMK AO2 RAB15E39 SLP247 P0000 T00610056
KMEM 221154Z 33005KT 1 1/2SM -DZ BR OVC003 06/05 A3028 RMK AO2 DZB45 SLP256 P0000 60041 70247 T00560050 10089 20050 51035
KMEM 221254Z 35007KT 1SM R36L/P6000FT -DZ BR OVC003 06/05 A3030 RMK AO2 SLP262 P0000 T00560050 $
KMEM 221354Z 01008KT 3SM BR OVC005 06/05 A3033 RMK AO2 DZE24 SLP269 P0000 T00560050 $